Time;durP1;ratioP1;P1;durP2;ratioP2;P2;SDS_P1;SDS_P2;PMS_P1;PMS_P2;Temp;Humidity;BMP_temperature;BMP_pressure;BME280_temperature;BME280_humidity;BME280_pressure;Samples;Min_cycle;Max_cycle;Signal;HPM_P1;HPM_P2
2023/04/08 00:00:30;;;;;;;32.08;16.52;;;;;;;;;;8364814;28;20052;-80
2023/04/08 00:04:54;;;;;;;29.63;16.15;;;;;;;;;;8365431;28;20102;-83
2023/04/08 00:08:57;;;;;;;26.67;14.93;;;;;;;;;;8364147;28;20041;-80
2023/04/08 00:13:00;;;;;;;26.58;16.15;;;;;;;;;;8365012;28;20049;-82
2023/04/08 00:17:03;;;;;;;28.90;15.77;;;;;;;;;;8363566;28;20451;-80
2023/04/08 00:21:08;;;;;;;24.25;14.50;;;;;;;;;;8363172;28;20123;-83
2023/04/08 00:25:10;;;;;;;26.20;15.13;;;;;;;;;;8363709;28;20056;-81
2023/04/08 00:29:14;;;;;;;23.15;13.63;;;;;;;;;;8363705;28;20041;-81
2023/04/08 00:33:16;;;;;;;24.38;14.55;;;;;;;;;;8363025;28;20052;-80
2023/04/08 00:37:22;;;;;;;22.45;13.13;;;;;;;;;;8363878;28;20053;-80
2023/04/08 00:41:24;;;;;;;21.00;12.52;;;;;;;;;;8363598;28;20041;-82
2023/04/08 00:45:27;;;;;;;31.52;14.90;;;;;;;;;;8362334;28;20049;-81
2023/04/08 00:49:31;;;;;;;25.80;14.23;;;;;;;;;;8340383;28;20099;-81
2023/04/08 00:53:35;;;;;;;23.08;13.30;;;;;;;;;;8348651;28;20049;-83
2023/04/08 00:57:38;;;;;;;20.48;12.43;;;;;;;;;;8340431;28;20052;-81
2023/04/08 01:01:44;;;;;;;17.30;11.52;;;;;;;;;;8336811;28;20128;-79
2023/04/08 01:05:55;;;;;;;19.40;11.82;;;;;;;;;;8334682;28;20042;-78
2023/04/08 01:10:04;;;;;;;18.02;10.13;;;;;;;;;;8343318;28;20048;-81
2023/04/08 01:14:09;;;;;;;17.50;10.57;;;;;;;;;;8332247;28;20041;-80
2023/04/08 01:18:16;;;;;;;17.77;11.05;;;;;;;;;;8360323;28;20057;-79
2023/04/08 01:22:26;;;;;;;16.88;11.35;;;;;;;;;;8350115;28;20049;-80
2023/04/08 01:26:31;;;;;;;16.45;10.27;;;;;;;;;;8350027;28;20041;-80
2023/04/08 01:30:34;;;;;;;18.73;11.55;;;;;;;;;;8351693;28;20044;-80
2023/04/08 01:34:40;;;;;;;12.68;8.27;;;;;;;;;;8342963;28;20059;-81
2023/04/08 01:38:43;;;;;;;13.38;8.63;;;;;;;;;;8356912;28;20051;-81
2023/04/08 01:42:48;;;;;;;15.77;10.18;;;;;;;;;;8362538;28;20048;-83
2023/04/08 01:46:52;;;;;;;15.68;9.90;;;;;;;;;;8360863;28;20041;-80
2023/04/08 01:50:56;;;;;;;14.15;9.00;;;;;;;;;;8350261;28;20131;-79
2023/04/08 01:55:00;;;;;;;17.38;10.40;;;;;;;;;;8361564;28;20404;-80
2023/04/08 01:59:09;;;;;;;31.25;15.85;;;;;;;;;;8362192;28;20045;-80
2023/04/08 02:03:13;;;;;;;37.90;18.92;;;;;;;;;;8361397;28;20052;-79
2023/04/08 02:07:16;;;;;;;46.63;28.70;;;;;;;;;;8364116;28;20051;-82
2023/04/08 02:11:20;;;;;;;31.25;14.27;;;;;;;;;;8368085;28;20051;-80
2023/04/08 02:15:26;;;;;;;32.45;15.07;;;;;;;;;;8368363;28;20404;-85
2023/04/08 02:19:36;;;;;;;16.85;12.10;;;;;;;;;;8367908;28;20501;-79
2023/04/08 02:23:40;;;;;;;20.30;12.80;;;;;;;;;;8368535;28;20117;-81
2023/04/08 02:27:45;;;;;;;15.90;10.55;;;;;;;;;;8363401;28;20060;-83
2023/04/08 02:31:51;;;;;;;13.90;9.85;;;;;;;;;;8367462;28;20041;-79
2023/04/08 02:35:55;;;;;;;14.48;10.50;;;;;;;;;;8368153;28;20496;-79
2023/04/08 02:39:59;;;;;;;35.17;17.15;;;;;;;;;;8367542;28;20489;-80
2023/04/08 02:44:02;;;;;;;18.70;11.13;;;;;;;;;;8367455;28;20045;-83
2023/04/08 02:48:07;;;;;;;14.35;9.88;;;;;;;;;;8367098;28;20052;-80
2023/04/08 02:52:10;;;;;;;13.00;8.55;;;;;;;;;;8366745;28;20052;-80
2023/04/08 02:56:13;;;;;;;11.75;7.38;;;;;;;;;;8348521;28;20426;-80
2023/04/08 03:00:16;;;;;;;12.07;8.07;;;;;;;;;;8353403;28;20098;-80
2023/04/08 03:04:20;;;;;;;10.73;7.47;;;;;;;;;;8355581;28;20063;-80
2023/04/08 03:08:23;;;;;;;10.13;7.05;;;;;;;;;;8347054;28;20053;-81
2023/04/08 03:12:27;;;;;;;10.68;6.90;;;;;;;;;;8347752;28;20500;-79
2023/04/08 03:16:30;;;;;;;9.50;6.78;;;;;;;;;;8356805;28;20056;-80
2023/04/08 03:20:34;;;;;;;10.77;7.65;;;;;;;;;;8351979;28;20091;-80
2023/04/08 03:24:37;;;;;;;10.43;7.03;;;;;;;;;;8347451;28;20444;-81
2023/04/08 03:28:40;;;;;;;10.23;6.80;;;;;;;;;;8352845;28;20041;-85
2023/04/08 03:32:42;;;;;;;11.02;7.40;;;;;;;;;;8347324;28;20049;-80
2023/04/08 03:36:46;;;;;;;12.75;7.97;;;;;;;;;;8362259;28;20152;-80
2023/04/08 03:40:49;;;;;;;10.48;7.00;;;;;;;;;;8350231;28;20491;-79
2023/04/08 03:44:52;;;;;;;10.80;7.20;;;;;;;;;;8336980;28;20052;-82
2023/04/08 03:48:55;;;;;;;36.90;20.65;;;;;;;;;;8360615;28;20040;-79
2023/04/08 03:52:59;;;;;;;13.45;8.65;;;;;;;;;;8349989;28;20099;-84
2023/04/08 03:57:02;;;;;;;14.55;9.27;;;;;;;;;;8333997;28;20049;-80
2023/04/08 04:01:05;;;;;;;16.15;10.40;;;;;;;;;;8334311;28;20090;-79
2023/04/08 04:05:08;;;;;;;12.32;8.27;;;;;;;;;;8321955;28;20057;-80
2023/04/08 04:09:14;;;;;;;16.02;11.57;;;;;;;;;;8332473;28;20107;-83
2023/04/08 04:13:18;;;;;;;16.75;10.45;;;;;;;;;;8333376;28;20444;-81
2023/04/08 04:17:21;;;;;;;17.38;12.35;;;;;;;;;;8339612;28;20136;-81
2023/04/08 04:21:24;;;;;;;18.52;13.82;;;;;;;;;;8308188;28;20041;-84
2023/04/08 04:25:28;;;;;;;18.15;13.07;;;;;;;;;;8342920;28;22105;-80
2023/04/08 04:29:31;;;;;;;18.77;11.35;;;;;;;;;;8327170;28;20047;-83
2023/04/08 04:33:34;;;;;;;29.08;21.38;;;;;;;;;;8323261;28;20113;-79
2023/04/08 04:37:37;;;;;;;34.72;23.35;;;;;;;;;;8332495;28;20049;-79
2023/04/08 04:41:43;;;;;;;34.28;23.58;;;;;;;;;;8331604;28;20125;-82
2023/04/08 04:45:46;;;;;;;25.92;16.52;;;;;;;;;;8328475;28;20052;-81
2023/04/08 04:49:49;;;;;;;41.88;27.50;;;;;;;;;;8326920;28;20076;-79
2023/04/08 04:53:52;;;;;;;25.30;15.88;;;;;;;;;;8344906;28;20469;-82
2023/04/08 04:57:56;;;;;;;33.58;21.80;;;;;;;;;;8326327;28;20042;-79
2023/04/08 05:01:59;;;;;;;17.38;12.00;;;;;;;;;;8327629;28;20045;-84
2023/04/08 05:06:02;;;;;;;19.75;13.50;;;;;;;;;;8332000;28;20502;-81
2023/04/08 05:10:05;;;;;;;20.77;13.35;;;;;;;;;;8340598;28;20481;-83
2023/04/08 05:14:10;;;;;;;23.00;15.43;;;;;;;;;;8315376;28;20180;-82
2023/04/08 05:18:13;;;;;;;20.02;14.57;;;;;;;;;;8338173;28;20516;-83
2023/04/08 05:22:15;;;;;;;26.65;16.40;;;;;;;;;;8338636;28;20049;-81
2023/04/08 05:26:18;;;;;;;57.35;33.10;;;;;;;;;;8330574;28;20057;-82
2023/04/08 05:30:23;;;;;;;39.72;29.33;;;;;;;;;;8319510;28;20044;-85
2023/04/08 05:34:26;;;;;;;108.15;56.63;;;;;;;;;;8340660;28;20049;-90
2023/04/08 05:38:29;;;;;;;58.90;34.40;;;;;;;;;;8354433;28;20056;-89
2023/04/08 05:42:32;;;;;;;44.67;27.33;;;;;;;;;;8333283;28;20401;-83
2023/04/08 05:46:38;;;;;;;20.38;13.73;;;;;;;;;;8330650;28;20079;-89
2023/04/08 05:50:41;;;;;;;23.20;12.98;;;;;;;;;;8331344;28;20053;-86
2023/04/08 05:54:45;;;;;;;22.67;14.93;;;;;;;;;;8343945;28;20463;-87
2023/04/08 05:58:47;;;;;;;15.02;10.55;;;;;;;;;;8361285;28;20397;-87
2023/04/08 06:02:51;;;;;;;21.58;12.63;;;;;;;;;;8336804;28;20477;-88
2023/04/08 06:06:56;;;;;;;17.45;12.18;;;;;;;;;;8335040;28;20049;-88
2023/04/08 06:10:59;;;;;;;16.55;11.48;;;;;;;;;;8360608;28;20057;-87
2023/04/08 06:15:03;;;;;;;15.30;10.60;;;;;;;;;;8351078;28;20056;-88
2023/04/08 06:19:07;;;;;;;23.05;14.60;;;;;;;;;;8328823;28;20058;-87
2023/04/08 06:23:11;;;;;;;26.98;14.50;;;;;;;;;;8343162;28;20063;-87
2023/04/08 06:27:14;;;;;;;18.55;10.60;;;;;;;;;;8344923;28;20053;-87
2023/04/08 06:31:17;;;;;;;10.82;7.63;;;;;;;;;;8346113;28;20045;-86
2023/04/08 06:35:22;;;;;;;32.00;16.92;;;;;;;;;;8322924;28;20559;-87
2023/04/08 06:39:25;;;;;;;28.13;12.27;;;;;;;;;;8332804;28;20575;-87
2023/04/08 06:43:28;;;;;;;24.85;12.40;;;;;;;;;;8333812;28;20049;-90
2023/04/08 06:47:30;;;;;;;14.77;9.10;;;;;;;;;;8324021;28;20052;-88
2023/04/08 06:51:35;;;;;;;19.00;9.80;;;;;;;;;;8331848;28;20547;-88
2023/04/08 06:55:38;;;;;;;18.17;11.98;;;;;;;;;;8356600;28;20060;-87
2023/04/08 06:59:41;;;;;;;13.85;8.98;;;;;;;;;;8333761;28;20045;-86
2023/04/08 07:03:44;;;;;;;27.17;14.30;;;;;;;;;;8327377;28;20048;-84
2023/04/08 07:07:48;;;;;;;13.95;8.93;;;;;;;;;;8344040;28;20044;-84
2023/04/08 07:11:51;;;;;;;17.30;10.70;;;;;;;;;;8365320;28;20049;-84
2023/04/08 07:15:54;;;;;;;13.73;10.00;;;;;;;;;;8351968;28;20481;-85
2023/04/08 07:19:58;;;;;;;13.60;8.88;;;;;;;;;;8364555;28;20452;-85
2023/04/08 07:24:02;;;;;;;17.35;9.13;;;;;;;;;;8354822;28;20055;-86
2023/04/08 07:28:05;;;;;;;14.43;8.60;;;;;;;;;;8365580;28;20060;-85
2023/04/08 07:32:08;;;;;;;18.00;10.73;;;;;;;;;;8356597;28;20454;-86
2023/04/08 07:36:12;;;;;;;12.55;8.20;;;;;;;;;;8365571;28;20048;-85
2023/04/08 07:40:17;;;;;;;11.65;7.28;;;;;;;;;;8365717;28;20049;-86
2023/04/08 07:44:20;;;;;;;16.70;11.10;;;;;;;;;;8362596;28;20119;-85
2023/04/08 07:48:22;;;;;;;13.02;8.13;;;;;;;;;;8365379;28;20124;-85
2023/04/08 07:52:26;;;;;;;12.52;7.97;;;;;;;;;;8352723;28;20084;-85
2023/04/08 07:56:30;;;;;;;11.10;7.72;;;;;;;;;;8363539;28;20132;-85
2023/04/08 08:00:33;;;;;;;13.52;8.82;;;;;;;;;;8357922;28;20496;-88
2023/04/08 08:04:36;;;;;;;14.80;9.77;;;;;;;;;;8357426;28;20111;-86
2023/04/08 08:08:39;;;;;;;11.85;8.70;;;;;;;;;;8343987;28;20099;-88
2023/04/08 08:12:44;;;;;;;13.40;9.48;;;;;;;;;;8346042;28;20073;-88
2023/04/08 08:16:47;;;;;;;18.48;11.70;;;;;;;;;;8354700;28;20131;-89
2023/04/08 08:20:50;;;;;;;13.82;8.27;;;;;;;;;;8315308;28;20044;-89
2023/04/08 08:24:56;;;;;;;16.95;10.13;;;;;;;;;;8332869;28;20037;-92
2023/04/08 08:29:01;;;;;;;14.18;7.32;;;;;;;;;;8338781;28;20466;-86
2023/04/08 08:33:04;;;;;;;12.20;7.95;;;;;;;;;;8345639;28;20140;-89
2023/04/08 08:37:07;;;;;;;11.00;7.68;;;;;;;;;;8332591;28;20045;-87
2023/04/08 08:41:10;;;;;;;12.63;8.50;;;;;;;;;;8362788;28;20048;-87
2023/04/08 08:45:15;;;;;;;12.73;8.80;;;;;;;;;;8317698;28;20427;-88
2023/04/08 08:49:25;;;;;;;13.95;9.25;;;;;;;;;;8324312;28;20045;-90
2023/04/08 08:53:32;;;;;;;13.43;9.02;;;;;;;;;;8318953;28;20076;-89
2023/04/08 08:57:36;;;;;;;18.08;9.55;;;;;;;;;;8326751;28;20053;-87
2023/04/08 09:01:41;;;;;;;16.25;10.60;;;;;;;;;;8320149;28;20605;-89
2023/04/08 09:05:55;;;;;;;13.30;8.75;;;;;;;;;;8322882;28;20132;-88
2023/04/08 09:09:59;;;;;;;15.68;8.88;;;;;;;;;;8315376;28;20041;-88
2023/04/08 09:14:06;;;;;;;13.77;8.98;;;;;;;;;;8319332;28;20429;-89
2023/04/08 09:18:22;;;;;;;13.30;8.40;;;;;;;;;;8315776;28;20061;-89
2023/04/08 09:22:26;;;;;;;14.25;9.85;;;;;;;;;;8317086;28;20057;-90
2023/04/08 09:26:29;;;;;;;12.70;8.32;;;;;;;;;;8321271;28;20482;-89
2023/04/08 09:30:33;;;;;;;18.25;11.07;;;;;;;;;;8330977;28;20565;-89
2023/04/08 09:34:38;;;;;;;15.35;9.07;;;;;;;;;;8325474;28;20060;-88
2023/04/08 09:38:41;;;;;;;13.60;9.15;;;;;;;;;;8331788;28;20036;-89
2023/04/08 09:42:47;;;;;;;13.90;8.25;;;;;;;;;;8335275;28;20053;-90
2023/04/08 09:47:01;;;;;;;14.30;8.75;;;;;;;;;;8311867;28;20132;-90
2023/04/08 09:51:06;;;;;;;13.57;9.90;;;;;;;;;;8314373;28;20049;-89
2023/04/08 09:55:12;;;;;;;19.27;11.98;;;;;;;;;;8315733;28;20046;-89
2023/04/08 09:59:20;;;;;;;13.38;8.07;;;;;;;;;;8320759;28;20049;-92
2023/04/08 10:03:28;;;;;;;15.45;9.35;;;;;;;;;;8325316;28;20051;-91
2023/04/08 10:07:36;;;;;;;13.25;8.70;;;;;;;;;;8336281;28;20137;-92
2023/04/08 10:11:40;;;;;;;11.85;7.97;;;;;;;;;;8325118;28;20124;-92
2023/04/08 10:15:46;;;;;;;35.13;18.40;;;;;;;;;;8324334;28;20033;-90
2023/04/08 10:19:50;;;;;;;21.40;12.50;;;;;;;;;;8326603;28;20045;-93
2023/04/08 10:24:17;;;;;;;13.85;8.93;;;;;;;;;;8341957;28;20145;-91
2023/04/08 10:28:25;;;;;;;13.80;8.52;;;;;;;;;;8336445;28;20069;-92
2023/04/08 10:32:29;;;;;;;13.18;8.82;;;;;;;;;;8329732;28;20501;-90
2023/04/08 10:36:32;;;;;;;10.75;7.15;;;;;;;;;;8335691;28;20123;-91
2023/04/08 10:40:40;;;;;;;12.48;8.52;;;;;;;;;;8357513;28;20101;-91
2023/04/08 10:44:46;;;;;;;14.35;9.27;;;;;;;;;;8360247;28;20413;-89
2023/04/08 10:49:03;;;;;;;12.65;8.63;;;;;;;;;;8348467;28;20118;-90
2023/04/08 10:53:07;;;;;;;12.88;8.80;;;;;;;;;;8345834;28;20411;-92
2023/04/08 10:57:11;;;;;;;10.73;6.97;;;;;;;;;;8346454;28;20045;-86
2023/04/08 11:01:14;;;;;;;11.02;7.00;;;;;;;;;;8331833;28;20122;-86
2023/04/08 11:05:18;;;;;;;8.32;6.05;;;;;;;;;;8341551;28;20455;-88
2023/04/08 11:09:21;;;;;;;9.43;7.03;;;;;;;;;;8352032;28;20412;-88
2023/04/08 11:13:27;;;;;;;10.80;6.60;;;;;;;;;;8340293;28;20092;-86
2023/04/08 11:17:34;;;;;;;10.20;6.25;;;;;;;;;;8354785;28;20053;-87
2023/04/08 11:21:38;;;;;;;11.40;7.28;;;;;;;;;;8347284;28;20054;-89
2023/04/08 11:25:41;;;;;;;20.65;13.27;;;;;;;;;;8358884;28;20155;-90
2023/04/08 11:29:49;;;;;;;20.50;13.65;;;;;;;;;;8363307;28;20128;-90
2023/04/08 11:33:55;;;;;;;11.50;7.55;;;;;;;;;;8344113;28;20069;-87
2023/04/08 11:37:59;;;;;;;8.65;5.10;;;;;;;;;;8318036;28;20077;-88
2023/04/08 11:42:03;;;;;;;11.57;6.88;;;;;;;;;;8320306;28;20057;-88
2023/04/08 11:46:11;;;;;;;12.32;6.35;;;;;;;;;;8333426;28;20512;-91
2023/04/08 11:50:28;;;;;;;11.70;6.82;;;;;;;;;;8322708;28;20049;-89
2023/04/08 11:54:33;;;;;;;10.52;7.15;;;;;;;;;;8322183;28;20049;-88
2023/04/08 11:58:37;;;;;;;10.63;6.78;;;;;;;;;;8334110;28;20141;-89
2023/04/08 12:02:43;;;;;;;19.40;12.13;;;;;;;;;;8316892;28;20135;-88
2023/04/08 12:06:46;;;;;;;12.68;8.38;;;;;;;;;;8316811;28;20053;-89
2023/04/08 12:10:49;;;;;;;17.40;9.38;;;;;;;;;;8322959;28;20052;-89
2023/04/08 12:14:53;;;;;;;20.00;9.82;;;;;;;;;;8321547;28;20456;-89
2023/04/08 12:19:00;;;;;;;12.00;7.40;;;;;;;;;;8324003;28;20092;-88
2023/04/08 12:23:05;;;;;;;14.55;8.65;;;;;;;;;;8311933;28;20560;-88
2023/04/08 12:27:11;;;;;;;27.42;12.50;;;;;;;;;;8311959;28;20057;-88
2023/04/08 12:31:18;;;;;;;16.08;9.60;;;;;;;;;;8329092;28;20052;-88
2023/04/08 12:35:26;;;;;;;28.25;16.13;;;;;;;;;;8321852;28;20482;-88
2023/04/08 12:39:32;;;;;;;15.02;7.53;;;;;;;;;;8313693;28;20429;-86
2023/04/08 12:43:35;;;;;;;11.82;7.30;;;;;;;;;;8328003;28;20051;-87
2023/04/08 12:47:50;;;;;;;20.05;9.70;;;;;;;;;;8327327;28;20210;-88
2023/04/08 12:52:08;;;;;;;10.35;6.25;;;;;;;;;;8322421;28;20064;-88
2023/04/08 12:56:11;;;;;;;9.13;5.90;;;;;;;;;;8316887;28;20057;-87
2023/04/08 13:00:18;;;;;;;8.23;4.88;;;;;;;;;;8308279;28;20056;-86
2023/04/08 13:04:21;;;;;;;18.70;8.23;;;;;;;;;;8310171;28;20078;-86
2023/04/08 13:08:26;;;;;;;10.65;6.45;;;;;;;;;;8318520;28;20054;-87
2023/04/08 13:12:29;;;;;;;33.90;12.27;;;;;;;;;;8321767;28;20136;-86
2023/04/08 13:16:32;;;;;;;35.25;16.90;;;;;;;;;;8303351;28;20093;-87
2023/04/08 13:20:37;;;;;;;16.98;10.32;;;;;;;;;;8309136;28;20045;-91
2023/04/08 13:24:46;;;;;;;9.82;6.43;;;;;;;;;;8319784;28;20044;-89
2023/04/08 13:28:51;;;;;;;10.98;6.68;;;;;;;;;;8315238;28;20046;-87
2023/04/08 13:32:54;;;;;;;13.40;7.97;;;;;;;;;;8330628;28;20128;-88
2023/04/08 13:36:58;;;;;;;10.82;6.97;;;;;;;;;;8309399;28;20406;-87
2023/04/08 13:41:06;;;;;;;15.25;8.00;;;;;;;;;;8317345;28;20045;-87
2023/04/08 13:45:10;;;;;;;12.93;7.70;;;;;;;;;;8318677;28;20463;-87
2023/04/08 13:49:13;;;;;;;9.57;6.40;;;;;;;;;;8322765;28;20585;-87
2023/04/08 13:53:16;;;;;;;8.90;5.70;;;;;;;;;;8315149;28;20501;-87
2023/04/08 13:57:20;;;;;;;10.10;6.35;;;;;;;;;;8319048;28;20799;-89
2023/04/08 14:01:23;;;;;;;19.88;11.05;;;;;;;;;;8319547;28;20069;-87
2023/04/08 14:05:29;;;;;;;10.73;6.30;;;;;;;;;;8326522;28;20402;-88
2023/04/08 14:09:38;;;;;;;9.43;6.63;;;;;;;;;;8327547;28;20399;-88
2023/04/08 14:13:56;;;;;;;10.02;5.90;;;;;;;;;;8336814;28;20060;-90
2023/04/08 14:18:01;;;;;;;14.13;7.80;;;;;;;;;;8332987;28;20054;-86
2023/04/08 14:22:05;;;;;;;8.43;5.45;;;;;;;;;;8330342;28;20045;-87
2023/04/08 14:26:08;;;;;;;10.27;6.03;;;;;;;;;;8329616;28;20140;-89
2023/04/08 14:30:16;;;;;;;10.48;6.60;;;;;;;;;;8329174;28;20045;-88
2023/04/08 14:34:21;;;;;;;54.97;30.80;;;;;;;;;;8323544;28;21364;-87
2023/04/08 14:38:25;;;;;;;13.90;8.55;;;;;;;;;;8326958;28;20123;-89
2023/04/08 14:42:30;;;;;;;129.73;47.17;;;;;;;;;;8335510;28;20057;-89
2023/04/08 14:46:34;;;;;;;15.07;9.30;;;;;;;;;;8366363;28;20076;-90
2023/04/08 14:50:37;;;;;;;21.92;12.57;;;;;;;;;;8367597;28;20045;-90
2023/04/08 14:54:43;;;;;;;10.45;7.68;;;;;;;;;;8328483;28;20052;-88
2023/04/08 14:58:47;;;;;;;13.90;8.45;;;;;;;;;;8330468;28;20050;-92
2023/04/08 15:02:52;;;;;;;20.42;11.88;;;;;;;;;;8364657;28;20386;-90
2023/04/08 15:06:55;;;;;;;37.97;22.30;;;;;;;;;;8367534;28;20144;-89
2023/04/08 15:10:58;;;;;;;35.33;23.80;;;;;;;;;;8338944;28;20153;-88
2023/04/08 15:15:01;;;;;;;68.22;27.42;;;;;;;;;;8338120;28;20072;-87
2023/04/08 15:19:05;;;;;;;137.07;51.58;;;;;;;;;;8366704;28;20059;-87
2023/04/08 15:23:09;;;;;;;55.08;27.38;;;;;;;;;;8302982;28;20148;-87
2023/04/08 15:27:14;;;;;;;51.75;25.00;;;;;;;;;;8317193;28;20048;-87
2023/04/08 15:31:21;;;;;;;32.13;13.70;;;;;;;;;;8326623;28;20061;-88
2023/04/08 15:35:46;;;;;;;54.30;25.20;;;;;;;;;;8318158;28;20053;-88
2023/04/08 15:39:52;;;;;;;57.95;27.95;;;;;;;;;;8327528;28;20129;-89
2023/04/08 15:43:56;;;;;;;76.65;30.77;;;;;;;;;;8325353;28;20425;-90
2023/04/08 15:47:59;;;;;;;49.60;22.80;;;;;;;;;;8328111;28;20053;-90
2023/04/08 15:52:04;;;;;;;21.80;11.95;;;;;;;;;;8331527;28;20468;-88
2023/04/08 15:56:14;;;;;;;39.22;19.05;;;;;;;;;;8329574;28;20046;-90
2023/04/08 16:00:18;;;;;;;28.50;14.80;;;;;;;;;;8315534;28;20485;-90
2023/04/08 16:04:23;;;;;;;34.95;16.48;;;;;;;;;;8340518;28;20064;-88
2023/04/08 16:08:29;;;;;;;26.88;13.73;;;;;;;;;;8333168;28;20053;-88
2023/04/08 16:12:33;;;;;;;16.20;9.90;;;;;;;;;;8312454;28;20137;-91
2023/04/08 16:20:53;;;;;;;44.83;25.15;;;;;;;;;;8322258;28;20053;-87
2023/04/08 16:24:58;;;;;;;94.43;42.13;;;;;;;;;;8336584;28;20508;-89
2023/04/08 16:29:02;;;;;;;71.25;33.13;;;;;;;;;;8325325;28;20052;-88
2023/04/08 16:33:17;;;;;;;124.20;45.50;;;;;;;;;;8318871;28;20502;-91
2023/04/08 16:37:31;;;;;;;54.63;25.05;;;;;;;;;;8319411;28;20507;-89
2023/04/08 16:41:38;;;;;;;74.53;29.45;;;;;;;;;;8317475;28;20125;-88
2023/04/08 16:45:41;;;;;;;71.80;26.20;;;;;;;;;;8323682;28;20064;-88
2023/04/08 16:49:44;;;;;;;120.65;38.72;;;;;;;;;;8322727;28;20045;-87
2023/04/08 16:53:47;;;;;;;19.13;10.85;;;;;;;;;;8307488;28;20166;-88
2023/04/08 16:57:52;;;;;;;21.30;10.05;;;;;;;;;;8312193;28;20119;-87
2023/04/08 17:01:55;;;;;;;11.73;7.63;;;;;;;;;;8329806;28;20418;-88
2023/04/08 17:06:06;;;;;;;14.52;8.90;;;;;;;;;;8325893;28;20052;-93
2023/04/08 17:10:13;;;;;;;20.00;10.10;;;;;;;;;;8312190;28;20049;-91
2023/04/08 17:14:18;;;;;;;18.65;9.40;;;;;;;;;;8314529;28;20033;-90
2023/04/08 17:18:21;;;;;;;15.45;8.48;;;;;;;;;;8309179;28;20130;-87
2023/04/08 17:22:24;;;;;;;13.52;8.20;;;;;;;;;;8315896;28;20132;-86
2023/04/08 17:26:29;;;;;;;13.85;7.95;;;;;;;;;;8308252;28;20124;-87
2023/04/08 17:30:36;;;;;;;12.35;7.75;;;;;;;;;;8324824;28;22303;-89
2023/04/08 17:34:40;;;;;;;12.40;8.10;;;;;;;;;;8308714;28;20137;-88
2023/04/08 17:38:43;;;;;;;13.77;8.18;;;;;;;;;;8312762;28;20421;-88
2023/04/08 17:42:46;;;;;;;14.95;8.88;;;;;;;;;;8319106;28;20106;-88
2023/04/08 17:46:54;;;;;;;15.38;9.73;;;;;;;;;;8316737;28;20052;-87
2023/04/08 17:51:01;;;;;;;46.03;23.67;;;;;;;;;;8316622;28;20136;-88
2023/04/08 17:55:08;;;;;;;81.63;38.35;;;;;;;;;;8310658;28;20054;-87
2023/04/08 17:59:11;;;;;;;84.95;38.33;;;;;;;;;;8315748;28;20037;-89
2023/04/08 18:03:16;;;;;;;70.90;33.30;;;;;;;;;;8313321;28;20081;-89
2023/04/08 18:07:22;;;;;;;68.10;30.67;;;;;;;;;;8316064;28;20546;-89
2023/04/08 18:11:26;;;;;;;131.63;52.33;;;;;;;;;;8294470;28;20038;-88
2023/04/08 18:15:32;;;;;;;127.15;48.47;;;;;;;;;;8308147;28;20045;-88
2023/04/08 18:19:37;;;;;;;114.75;43.92;;;;;;;;;;8325442;28;20417;-88
2023/04/08 18:23:45;;;;;;;101.47;40.47;;;;;;;;;;8316508;28;20418;-88
2023/04/08 18:27:50;;;;;;;97.50;38.80;;;;;;;;;;8332828;28;20042;-87
2023/04/08 18:31:53;;;;;;;151.68;53.55;;;;;;;;;;8309321;28;20100;-86
2023/04/08 18:36:08;;;;;;;119.70;46.42;;;;;;;;;;8322976;28;20468;-88
2023/04/08 18:40:12;;;;;;;55.83;25.33;;;;;;;;;;8319892;28;20540;-89
2023/04/08 18:44:16;;;;;;;79.72;32.92;;;;;;;;;;8327803;28;20414;-88
2023/04/08 18:48:21;;;;;;;45.00;22.40;;;;;;;;;;8329087;28;20034;-88
2023/04/08 18:52:25;;;;;;;25.65;14.32;;;;;;;;;;8335056;28;20049;-88
2023/04/08 18:56:28;;;;;;;27.02;15.85;;;;;;;;;;8334912;28;20485;-89
2023/04/08 19:00:34;;;;;;;19.90;12.23;;;;;;;;;;8334770;28;20129;-87
2023/04/08 19:04:38;;;;;;;19.55;11.95;;;;;;;;;;8334288;28;20485;-88
2023/04/08 19:08:46;;;;;;;21.13;12.60;;;;;;;;;;8333922;28;20050;-89
2023/04/08 19:12:50;;;;;;;27.95;15.98;;;;;;;;;;8333815;28;20045;-88
2023/04/08 19:16:53;;;;;;;21.67;12.25;;;;;;;;;;8333599;28;20065;-87
2023/04/08 19:20:57;;;;;;;22.92;14.15;;;;;;;;;;8333718;28;20406;-89
2023/04/08 19:25:02;;;;;;;23.92;14.18;;;;;;;;;;8321172;28;20054;-86
2023/04/08 19:29:13;;;;;;;27.45;14.70;;;;;;;;;;8317753;28;20057;-91
2023/04/08 19:33:17;;;;;;;22.42;13.00;;;;;;;;;;8333456;28;20049;-89
2023/04/08 19:37:20;;;;;;;28.45;15.93;;;;;;;;;;8333453;28;20044;-87
2023/04/08 19:41:25;;;;;;;25.38;14.07;;;;;;;;;;8333501;28;20050;-86
2023/04/08 19:45:28;;;;;;;28.95;14.65;;;;;;;;;;8366441;28;20452;-90
2023/04/08 19:49:33;;;;;;;32.78;16.52;;;;;;;;;;8365647;28;20597;-87
2023/04/08 19:53:37;;;;;;;35.20;17.08;;;;;;;;;;8365843;28;20068;-89
2023/04/08 19:57:41;;;;;;;36.75;18.33;;;;;;;;;;8365126;28;20518;-89
2023/04/08 20:01:44;;;;;;;34.25;17.40;;;;;;;;;;8365568;28;20552;-90
2023/04/08 20:05:47;;;;;;;36.70;16.15;;;;;;;;;;8338349;28;20420;-87
2023/04/08 20:09:51;;;;;;;37.83;16.20;;;;;;;;;;8365575;28;20051;-90
2023/04/08 20:14:01;;;;;;;38.03;17.85;;;;;;;;;;8362152;28;20075;-86
2023/04/08 20:18:04;;;;;;;34.67;17.23;;;;;;;;;;8357578;28;20533;-88
2023/04/08 20:22:10;;;;;;;39.58;16.80;;;;;;;;;;8365188;28;20519;-88
2023/04/08 20:26:16;;;;;;;38.80;17.50;;;;;;;;;;8338650;28;20098;-88
2023/04/08 20:30:24;;;;;;;40.72;17.27;;;;;;;;;;8365222;28;20045;-88
2023/04/08 20:34:28;;;;;;;37.00;16.60;;;;;;;;;;8363036;28;20508;-89
2023/04/08 20:38:34;;;;;;;36.70;16.38;;;;;;;;;;8340395;28;20045;-91
2023/04/08 20:42:37;;;;;;;24.52;13.18;;;;;;;;;;8363425;28;20041;-91
2023/04/08 20:46:44;;;;;;;24.10;13.65;;;;;;;;;;8363889;28;20077;-87
2023/04/08 20:50:48;;;;;;;28.98;14.82;;;;;;;;;;8364852;28;20048;-87
2023/04/08 20:54:51;;;;;;;31.10;14.73;;;;;;;;;;8364363;28;20040;-90
2023/04/08 20:58:54;;;;;;;25.90;13.65;;;;;;;;;;8364469;28;20051;-87
2023/04/08 21:03:03;;;;;;;26.92;13.77;;;;;;;;;;8364212;28;20045;-88
2023/04/08 21:07:06;;;;;;;23.98;12.75;;;;;;;;;;8364199;28;20055;-87
2023/04/08 21:11:09;;;;;;;28.13;14.43;;;;;;;;;;8363899;28;20091;-92
2023/04/08 21:15:14;;;;;;;29.98;16.50;;;;;;;;;;8364375;28;20049;-88
2023/04/08 21:19:19;;;;;;;27.58;15.75;;;;;;;;;;8341718;28;20140;-88
2023/04/08 21:23:22;;;;;;;31.75;17.27;;;;;;;;;;8345408;28;20049;-85
2023/04/08 21:27:25;;;;;;;31.95;17.83;;;;;;;;;;8363047;28;20049;-84
2023/04/08 21:31:30;;;;;;;31.90;18.85;;;;;;;;;;8335378;28;20473;-89
2023/04/08 21:35:38;;;;;;;32.78;18.55;;;;;;;;;;8352604;28;20049;-90
2023/04/08 21:39:45;;;;;;;38.78;20.77;;;;;;;;;;8335694;28;20098;-91
2023/04/08 21:43:49;;;;;;;33.22;18.70;;;;;;;;;;8348305;28;20048;-90
2023/04/08 21:47:52;;;;;;;47.08;23.80;;;;;;;;;;8339398;28;20045;-89
2023/04/08 21:51:57;;;;;;;33.08;17.02;;;;;;;;;;8338822;28;20052;-89
2023/04/08 21:56:00;;;;;;;30.00;16.73;;;;;;;;;;8331112;28;20049;-91
2023/04/08 22:00:07;;;;;;;25.08;15.00;;;;;;;;;;8339665;28;20041;-89
2023/04/08 22:04:10;;;;;;;28.67;16.35;;;;;;;;;;8350217;28;20041;-90
2023/04/08 22:08:15;;;;;;;25.65;15.55;;;;;;;;;;8340484;28;20073;-88
2023/04/08 22:12:20;;;;;;;29.33;16.75;;;;;;;;;;8334577;28;20061;-88
2023/04/08 22:16:24;;;;;;;29.02;16.48;;;;;;;;;;8313777;28;20081;-90
2023/04/08 22:20:27;;;;;;;21.15;13.20;;;;;;;;;;8325139;28;20446;-91
2023/04/08 22:24:31;;;;;;;23.92;14.30;;;;;;;;;;8325210;28;20045;-91
2023/04/08 22:28:34;;;;;;;25.52;15.27;;;;;;;;;;8336015;28;20045;-89
2023/04/08 22:32:37;;;;;;;32.35;17.45;;;;;;;;;;8336492;28;20041;-89
2023/04/08 22:36:40;;;;;;;28.08;16.75;;;;;;;;;;8349368;28;20090;-90
2023/04/08 22:40:45;;;;;;;28.23;16.02;;;;;;;;;;8336173;28;20118;-89
2023/04/08 22:44:50;;;;;;;29.00;17.02;;;;;;;;;;8351750;28;20045;-89
2023/04/08 22:48:54;;;;;;;31.77;17.88;;;;;;;;;;8357857;28;20649;-90
2023/04/08 22:52:57;;;;;;;30.67;17.88;;;;;;;;;;8341736;28;20037;-90
2023/04/08 22:57:01;;;;;;;31.08;17.60;;;;;;;;;;8344821;28;20463;-90
2023/04/08 23:01:11;;;;;;;28.33;16.75;;;;;;;;;;8350490;28;20759;-90
2023/04/08 23:05:16;;;;;;;27.95;16.92;;;;;;;;;;8334960;28;20409;-89
2023/04/08 23:09:19;;;;;;;28.85;16.92;;;;;;;;;;8337617;28;20465;-90
2023/04/08 23:13:24;;;;;;;28.48;16.42;;;;;;;;;;8339530;28;20076;-88
2023/04/08 23:17:35;;;;;;;29.75;16.33;;;;;;;;;;8355556;28;20057;-90
2023/04/08 23:21:39;;;;;;;30.58;16.23;;;;;;;;;;8351045;28;20055;-89
2023/04/08 23:25:42;;;;;;;30.48;16.15;;;;;;;;;;8334363;28;20072;-89
2023/04/08 23:29:46;;;;;;;30.23;17.02;;;;;;;;;;8338389;28;20047;-88
2023/04/08 23:33:49;;;;;;;33.78;19.50;;;;;;;;;;8336643;28;20038;-90
2023/04/08 23:37:53;;;;;;;37.33;23.08;;;;;;;;;;8329261;28;20489;-89
2023/04/08 23:41:57;;;;;;;32.17;19.27;;;;;;;;;;8345617;28;20128;-89
2023/04/08 23:46:01;;;;;;;61.38;38.30;;;;;;;;;;8345124;28;20140;-90
2023/04/08 23:50:08;;;;;;;38.33;23.42;;;;;;;;;;8340079;28;20040;-89
2023/04/08 23:54:11;;;;;;;36.47;21.90;;;;;;;;;;8322890;28;20104;-89